DW7251 Weather Reports


Display with metric or nautical units.
time (UTC)temp
F
wind
direction
speed
MPH
gust
MPH
rain 1hr
in
rain 24hr
in
rain mn
in
humidity
%
barometer
mb
20181019182526 57 283 5.0 14.0 0.03 0.12 0.12 89 1010.8
20181019182029 57 216 5.0 11.0 0.03 0.12 0.12 89 1010.2
20181019181515 58 260 5.0 11.0 0.03 0.12 0.12 89 1010.3
20181019181001 58 310 5.0 11.0 0.03 0.11 0.12 89 1010.2
20181019180449 58 290 4.0 11.0 0.07 0.11 0.11 88 1009.5
20181019175952 58 171 3.0 13.0 0.08 0.11 0.11 89 1009.7
20181019175455 58 347 4.0 13.0 0.11 0.11 0.11 89 1009.3
20181019175004 58 312 5.0 17.0 0.07 0.10 0.10 89 1009.6
20181019174501 58 119 6.0 17.0 0.14 0.09 0.09 88 1009.8
20181019173954 59 347 6.0 17.0 0.07 0.08 0.08 88 1010.0
20181019173459 59 260 7.0 17.0 0.04 0.07 0.07 88 1009.9
20181019172940 59 228 6.0 15.0 0.06 0.07 0.07 88 1009.9
20181019172441 59 294 5.0 17.0 0.22 0.07 0.07 87 1009.6
20181019171946 59 219 5.0 17.0 0.24 0.05 0.05 87 1009.0
20181019171436 59 294 7.0 17.0 0.03 0.03 0.03 87 1009.8
20181019170934 60 270 7.0 17.0 0.07 0.03 0.03 87 1010.3
20181019170440 60 244 5.0 15.0 0.11 0.03 0.03 86 1010.0
20181019165922 60 323 5.0 15.0 0.11 0.01 0.02 85 1009.0
20181019165414 60 199 8.0 19.0 0.18 0.00 0.01 84 1008.9
20181019164902 61 307 9.0 19.0 0.00 0.00 0.00 83 1009.0
20181019164346 61 297 9.0 19.0 0.00 0.00 0.00 83 1009.3
20181019163850 61 278 9.0 19.0 0.00 0.00 0.00 82 1009.2
20181019163356 62 239 9.0 15.0 0.00 0.00 0.00 81 1008.9
20181019162850 62 291 8.0 16.0 0.00 0.00 0.00 81 1008.6
20181019162341 63 291 8.0 16.0 0.00 0.00 0.00 79 1008.3
20181019161822 63 277 8.0 16.0 0.00 0.00 0.00 78 1008.0
20181019161310 64 275 8.0 16.0 0.00 0.00 0.00 77 1007.7
20181019160806 64 228 7.0 15.0 0.00 0.00 0.00 76 1007.2
20181019160258 64 256 7.0 15.0 0.00 0.00 0.00 75 1007.0
20181019155755 65 259 7.0 15.0 0.00 0.00 0.00 74 1006.6
20181019155302 66 315 7.0 14.0 0.00 0.00 0.00 72 1006.4
20181019154744 67 263 5.0 14.0 0.00 0.00 0.00 70 1006.3
20181019154239 68 269 6.0 16.0 0.00 0.00 0.00 67 1006.4
20181019153744 69 275 6.0 16.0 0.00 0.00 0.00 63 1006.3
20181019153241 70 240 6.0 16.0 0.00 0.00 0.00 57 1006.1
20181019152743 72 278 5.0 16.0 0.00 0.00 0.00 52 1005.6
20181019152245 74 297 3.0 13.0 0.00 0.00 0.00 39 1005.8
20181019151741 75 340 3.0 10.0 0.00 0.00 0.00 39 1004.6
20181019151244 75 353 4.0 10.0 0.00 0.00 0.00 39 1004.5
20181019150752 75 19 3.0 10.0 0.00 0.00 0.00 39 1004.3
20181019150302 75 31 3.0 13.0 0.00 0.00 0.00 38 1004.6
20181019145753 75 29 4.0 13.0 0.00 0.00 0.00 38 1004.8
20181019145303 75 48 4.0 13.0 0.00 0.00 0.00 38 1004.9
20181019144753 75 333 3.0 13.0 0.00 0.00 0.00 39 1005.1
20181019144300 75 32 3.0 8.0 0.00 0.00 0.00 39 1005.2
20181019143749 74 1 3.0 7.0 0.00 0.00 0.00 40 1005.3
20181019143254 74 34 3.0 7.0 0.00 0.00 0.00 41 1005.4
20181019142754 73 10 2.0 7.0 0.00 0.00 0.00 43 1005.4
20181019142245 73 52 1.0 5.0 0.00 0.00 0.00 44 1005.5
20181019141736 73 11 1.0 7.0 0.00 0.00 0.00 45 1005.6
20181019141225 73 304 0.0 7.0 0.00 0.00 0.00 45 1005.9
20181019140733 73 305 1.0 7.0 0.00 0.00 0.00 45 1005.8
20181019140237 73 348 1.0 7.0 0.00 0.00 0.00 45 1005.8
20181019135744 72 333 1.0 6.0 0.00 0.00 0.00 47 1006.0
20181019135249 70 358 1.0 6.0 0.00 0.00 0.00 51 1005.7
20181019134733 70 316 2.0 6.0 0.00 0.00 0.00 57 1006.0
20181019134233 70 284 2.0 6.0 0.00 0.00 0.00 58 1006.2
20181019133735 72 330 2.0 6.0 0.00 0.00 0.00 56 1006.1
20181019133242 74 285 1.0 17.0 0.00 0.00 0.00 46 1006.2
20181019132731 74 279 2.0 17.0 0.00 0.00 0.00 43 1005.8
20181019132220 73 69 6.0 17.0 0.00 0.00 0.00 46 1005.6
20181019131712 73 232 7.0 17.0 0.00 0.00 0.00 46 1006.3
20181019131200 76 268 4.0 13.0 0.00 0.00 0.00 37 1006.2
20181019130703 77 344 4.0 13.0 0.00 0.00 0.00 35 1005.3
20181019130151 77 38 5.0 13.0 0.00 0.00 0.00 35 1005.1
20181019125639 77 17 5.0 13.0 0.00 0.00 0.00 35 1005.1
20181019125133 77 39 4.0 12.0 0.00 0.00 0.00 35 1005.1
20181019124615 77 342 5.0 12.0 0.00 0.00 0.00 35 1005.1
20181019124122 77 70 5.0 13.0 0.00 0.00 0.00 34 1005.2
20181019123609 77 69 4.0 13.0 0.00 0.00 0.00 35 1005.3
20181019123111 77 77 5.0 13.0 0.00 0.00 0.00 34 1005.4
20181019122621 78 114 5.0 13.0 0.00 0.00 0.00 34 1005.4
20181019122121 78 43 5.0 12.0 0.00 0.00 0.00 34 1005.6
20181019121601 78 77 5.0 12.0 0.00 0.00 0.00 34 1005.7
20181019121053 77 3 4.0 12.0 0.00 0.00 0.00 34 1005.7
20181019120542 78 277 4.0 12.0 0.00 0.00 0.00 34 1005.8
20181019120048 77 42 4.0 12.0 0.00 0.00 0.00 34 1005.8
20181019115531 78 22 5.0 11.0 0.00 0.00 0.00 35 1005.9
20181019115039 78 60 4.0 11.0 0.00 0.00 0.00 35 1005.9
20181019114525 78 74 4.0 10.0 0.00 0.00 0.00 35 1005.9
20181019114017 78 350 3.0 11.0 0.00 0.00 0.00 35 1006.0
20181019113514 78 45 4.0 11.0 0.00 0.00 0.00 35 1005.9
20181019113010 78 4 5.0 15.0 0.00 0.00 0.00 35 1005.8
20181019112516 78 57 6.0 15.0 0.00 0.00 0.00 35 1005.9
20181019112024 78 53 6.0 15.0 0.00 0.00 0.00 35 1005.9
20181019111511 78 69 5.0 15.0 0.00 0.00 0.00 35 1005.8
20181019111013 78 41 5.0 14.0 0.00 0.00 0.00 35 1005.8
20181019110500 77 19 5.0 14.0 0.00 0.00 0.00 36 1005.9
20181019105959 77 75 5.0 14.0 0.00 0.00 0.00 36 1006.0
20181019105508 77 69 5.0 12.0 0.00 0.00 0.00 36 1006.0
20181019105016 77 342 5.0 11.0 0.00 0.00 0.00 37 1006.0
20181019104509 77 7 5.0 11.0 0.00 0.00 0.00 37 1006.1
20181019104019 77 49 4.0 12.0 0.00 0.00 0.00 37 1006.1
20181019103500 77 313 4.0 12.0 0.00 0.00 0.00 38 1006.1
20181019102948 77 76 5.0 12.0 0.00 0.00 0.00 38 1006.1
20181019102456 77 53 4.0 12.0 0.00 0.00 0.00 38 1006.1
20181019102000 77 63 4.0 13.0 0.00 0.00 0.00 38 1006.3
20181019101453 77 56 4.0 13.0 0.00 0.00 0.00 39 1006.4
20181019100958 77 64 5.0 13.0 0.00 0.00 0.00 39 1006.4
20181019100449 77 53 4.0 13.0 0.00 0.00 0.00 39 1006.4
20181019095951 77 67 4.0 11.0 0.00 0.00 0.00 39 1006.5
20181019095457 77 34 5.0 11.0 0.00 0.00 0.00 39 1006.6
20181019095005 77 80 5.0 11.0 0.00 0.00 0.00 39 1006.5
20181019094509 77 36 5.0 11.0 0.00 0.00 0.00 39 1006.5
20181019094018 77 8 5.0 11.0 0.00 0.00 0.00 39 1006.6
20181019093523 77 22 4.0 10.0 0.00 0.00 0.00 39 1006.6
20181019093008 77 65 4.0 11.0 0.00 0.00 0.00 40 1006.6
20181019092501 77 76 5.0 11.0 0.00 0.00 0.00 40 1006.7
20181019091953 77 55 5.0 12.0 0.00 0.00 0.00 40 1006.7
20181019091449 77 35 5.0 12.0 0.00 0.00 0.00 40 1006.7
20181019090953 77 42 6.0 12.0 0.00 0.00 0.00 40 1006.8
20181019090450 77 31 5.0 12.0 0.00 0.00 0.00 40 1006.7
20181019085958 77 56 5.0 11.0 0.00 0.00 0.00 40 1006.8
20181019085501 77 35 3.0 10.0 0.00 0.00 0.00 40 1006.9
20181019084942 78 55 3.0 10.0 0.00 0.00 0.00 40 1007.0
20181019084432 78 28 4.0 9.0 0.00 0.00 0.00 40 1007.2
20181019083932 78 48 3.0 9.0 0.00 0.00 0.00 39 1007.2
20181019083437 78 62 3.0 8.0 0.00 0.00 0.00 39 1007.3
20181019082933 78 31 3.0 8.0 0.00 0.00 0.00 39 1007.3
20181019082429 78 339 2.0 6.0 0.00 0.00 0.00 39 1007.4
20181019081921 79 54 3.0 8.0 0.00 0.00 0.00 38 1007.4
20181019081429 79 50 3.0 8.0 0.00 0.00 0.00 38 1007.5
20181019080928 79 31 2.0 9.0 0.00 0.00 0.00 38 1007.5
20181019080425 79 59 3.0 9.0 0.00 0.00 0.00 37 1007.5
20181019075914 79 50 4.0 9.0 0.00 0.00 0.00 37 1007.5
20181019075413 79 38 4.0 9.0 0.00 0.00 0.00 37 1007.5
20181019074911 80 48 4.0 10.0 0.00 0.00 0.00 37 1007.5
20181019074408 80 21 3.0 10.0 0.00 0.00 0.00 37 1007.5
20181019073914 80 343 3.0 11.0 0.00 0.00 0.00 37 1007.4
20181019073354 80 10 4.0 11.0 0.00 0.00 0.00 37 1007.4
20181019072855 80 91 4.0 12.0 0.00 0.00 0.00 37 1007.2
20181019072403 80 0 4.0 12.0 0.00 0.00 0.00 36 1007.3
20181019071847 80 351 4.0 14.0 0.00 0.00 0.00 36 1007.4
20181019071343 80 25 5.0 14.0 0.00 0.00 0.00 35 1007.4
20181019070832 80 38 6.0 14.0 0.00 0.00 0.00 35 1007.5
20181019070327 81 74 6.0 14.0 0.00 0.00 0.00 34 1007.5
20181019065819 81 350 5.0 18.0 0.00 0.00 0.00 35 1007.4
20181019065304 81 24 6.0 18.0 0.00 0.00 0.00 34 1007.4
20181019064756 81 8 5.0 18.0 0.00 0.00 0.00 34 1007.5
20181019064247 81 55 5.0 18.0 0.00 0.00 0.00 35 1007.5
20181019063752 81 53 5.0 14.0 0.00 0.00 0.00 36 1007.6
20181019063259 81 69 5.0 14.0 0.00 0.00 0.00 36 1007.8
20181019062758 81 38 6.0 18.0 0.00 0.00 0.00 36 1007.8
20181019062249 81 63 7.0 18.0 0.00 0.00 0.00 35 1007.8
20181019061746 81 354 7.0 18.0 0.00 0.00 0.00 36 1007.9
20181019061251 81 357 7.0 18.0 0.00 0.00 0.00 37 1008.0
20181019060741 81 21 6.0 17.0 0.00 0.00 0.00 37 1008.0
20181019060228 81 311 6.0 15.0 0.00 0.00 0.00 36 1008.0
20181019055728 81 91 6.0 15.0 0.00 0.00 0.00 36 1007.9
20181019055208 81 72 6.0 15.0 0.00 0.00 0.00 37 1007.9
20181019054653 81 43 6.0 13.0 0.00 0.00 0.00 37 1008.1
20181019054141 82 56 6.0 14.0 0.00 0.00 0.00 37 1008.3
20181019053650 82 101 6.0 14.0 0.00 0.00 0.00 37 1008.3
20181019053149 82 323 7.0 19.0 0.00 0.00 0.00 36 1008.3
20181019052639 82 53 7.0 19.0 0.00 0.00 0.00 36 1008.2
20181019052143 83 337 6.0 19.0 0.00 0.00 0.00 35 1008.3
20181019051626 83 69 7.0 19.0 0.00 0.00 0.00 35 1008.3
20181019051129 83 349 8.0 19.0 0.00 0.00 0.00 36 1008.4
20181019050632 82 350 9.0 19.0 0.00 0.00 0.00 36 1008.4
20181019050121 82 2 8.0 18.0 0.00 0.00 0.00 35 1008.4
20181019045616 82 315 7.0 18.0 0.00 0.00 0.00 36 1008.5
20181019045105 82 70 6.0 15.0 0.00 0.00 0.00 35 1008.4
20181019044608 82 353 6.0 15.0 0.00 0.00 0.00 36 1008.6
20181019044051 82 342 5.0 21.0 0.00 0.00 0.00 36 1008.7
20181019043541 82 262 6.0 21.0 0.00 0.00 0.00 37 1008.7
20181019043031 82 345 7.0 21.0 0.00 0.00 0.00 36 1008.8
20181019042522 82 334 7.0 21.0 0.00 0.00 0.00 36 1008.8
20181019042024 83 259 6.0 16.0 0.00 0.00 0.00 35 1008.8
20181019041505 82 347 6.0 15.0 0.00 0.00 0.00 37 1008.8
20181019041006 82 49 7.0 15.0 0.00 0.00 0.00 37 1008.8
20181019040458 82 28 7.0 20.0 0.00 0.00 0.00 37 1008.9
20181019040004 82 335 7.0 20.0 0.00 0.00 0.00 38 1008.9
20181019035454 82 29 7.0 20.0 0.00 0.00 0.00 38 1008.9
20181019034941 82 1 8.0 20.0 0.00 0.00 0.00 39 1009.1
20181019034441 81 347 8.0 16.0 0.00 0.00 0.00 40 1009.1
20181019033941 80 324 7.0 16.0 0.00 0.00 0.00 41 1009.0
20181019033436 80 19 7.0 19.0 0.00 0.00 0.00 41 1008.9
20181019032945 80 1 7.0 19.0 0.00 0.00 0.00 42 1009.3
20181019032439 80 5 8.0 19.0 0.00 0.00 0.00 43 1009.3
20181019031946 81 260 8.0 19.0 0.00 0.00 0.00 41 1009.4
20181019031435 81 31 8.0 18.0 0.00 0.00 0.00 42 1009.5
20181019030929 81 353 8.0 18.0 0.00 0.00 0.00 42 1009.6
20181019030422 80 69 8.0 18.0 0.00 0.00 0.00 44 1009.7
20181019025929 80 48 6.0 15.0 0.00 0.00 0.00 44 1009.7
20181019025415 79 5 7.0 15.0 0.00 0.00 0.00 45 1009.8
20181019024914 79 14 8.0 15.0 0.00 0.00 0.00 44 1010.1
20181019024404 79 43 7.0 17.0 0.00 0.00 0.00 44 1010.2
20181019023913 79 90 7.0 17.0 0.00 0.00 0.00 44 1010.4
20181019023353 80 18 7.0 17.0 0.00 0.00 0.00 44 1010.3
20181019022843 80 31 7.0 17.0 0.00 0.00 0.00 43 1010.3
20181019022348 80 39 6.0 15.0 0.00 0.00 0.00 43 1010.3
20181019021730 79 1 6.0 18.0 0.00 0.00 0.00 45 1010.4
20181019021219 79 42 7.0 18.0 0.00 0.00 0.00 46 1010.4
20181019020715 78 346 8.0 18.0 0.00 0.00 0.00 46 1010.4
20181019020206 78 21 7.0 18.0 0.00 0.00 0.00 47 1010.5
20181019015703 78 28 8.0 20.0 0.00 0.00 0.00 46 1010.6
20181019015155 78 38 8.0 20.0 0.00 0.00 0.00 47 1010.6
20181019014705 78 15 7.0 20.0 0.00 0.00 0.00 46 1011.0
20181019014206 78 42 7.0 20.0 0.00 0.00 0.00 45 1010.9
20181019013713 78 326 8.0 17.0 0.00 0.00 0.00 46 1010.9
20181019013203 78 10 7.0 15.0 0.00 0.00 0.00 46 1011.0
20181019012651 77 347 8.0 21.0 0.00 0.00 0.00 47 1011.1
20181019012200 77 326 8.0 21.0 0.00 0.00 0.00 46 1011.2
20181019011656 77 42 7.0 21.0 0.00 0.00 0.00 47 1011.4
20181019011151 77 32 7.0 21.0 0.00 0.00 0.00 47 1011.3
20181019010641 76 333 7.0 17.0 0.00 0.00 0.00 47 1011.5
20181019010151 76 34 8.0 17.0 0.00 0.00 0.00 48 1011.6
20181019005638 76 42 7.0 17.0 0.00 0.00 0.00 49 1011.7
20181019005131 75 49 6.0 17.0 0.00 0.00 0.00 49 1011.9
20181019004630 75 28 8.0 17.0 0.00 0.00 0.00 50 1012.1
20181019004139 74 40 8.0 17.0 0.00 0.00 0.00 49 1012.2
20181019003621 74 4 8.0 16.0 0.00 0.00 0.00 50 1012.4
20181019003108 74 25 8.0 17.0 0.00 0.00 0.00 52 1012.3
20181019002615 73 66 8.0 17.0 0.00 0.00 0.00 51 1012.5
20181019002106 73 29 7.0 17.0 0.00 0.00 0.00 51 1012.5
20181019001601 73 63 7.0 17.0 0.00 0.00 0.00 53 1012.7
20181019001058 74 57 6.0 16.0 0.00 0.00 0.00 53 1012.8
20181019000555 73 347 6.0 16.0 0.00 0.00 0.00 53 1012.8
20181019000057 73 349 6.0 16.0 0.00 0.00 0.00 53 1012.9
20181018235551 73 358 6.0 16.0 0.00 0.00 0.00 55 1013.1
20181018235043 73 19 5.0 16.0 0.00 0.00 0.00 54 1013.1
20181018234529 73 41 5.0 16.0 0.00 0.00 0.00 55 1013.2
20181018234016 72 340 5.0 18.0 0.00 0.00 0.00 56 1013.2
20181018233511 71 49 6.0 18.0 0.00 0.00 0.00 58 1013.2
20181018232956 71 16 8.0 18.0 0.00 0.00 0.00 57 1013.2
20181018232442 71 329 8.0 18.0 0.00 0.00 0.00 57 1013.2
20181018231930 71 36 7.0 16.0 0.00 0.00 0.00 58 1013.4
20181018231438 70 353 7.0 19.0 0.00 0.00 0.00 59 1013.5
20181018230922 70 34 6.0 19.0 0.00 0.00 0.00 60 1013.5
20181018230430 70 56 6.0 19.0 0.00 0.00 0.00 60 1013.7
20181018225920 69 7 7.0 19.0 0.00 0.00 0.00 60 1013.7
20181018225429 69 55 7.0 17.0 0.00 0.00 0.00 61 1013.7
20181018224909 69 109 7.0 17.0 0.00 0.00 0.00 62 1013.9
20181018224412 68 11 6.0 17.0 0.00 0.00 0.00 63 1013.9
20181018223900 68 320 4.0 13.0 0.00 0.00 0.00 65 1013.8
20181018223356 68 42 5.0 13.0 0.00 0.00 0.00 66 1014.0
20181018222846 67 350 4.0 13.0 0.00 0.00 0.00 67 1014.0
20181018222341 67 39 4.0 11.0 0.00 0.00 0.00 68 1014.2
20181018221830 66 333 4.0 11.0 0.00 0.00 0.00 69 1014.2
20181018221327 65 350 4.0 11.0 0.00 0.00 0.00 69 1014.2
20181018220818 65 353 4.0 11.0 0.00 0.00 0.00 71 1014.3
20181018220303 64 39 5.0 11.0 0.00 0.00 0.00 72 1014.4
20181018215806 64 28 4.0 12.0 0.00 0.00 0.00 72 1014.4
20181018215255 64 348 4.0 12.0 0.00 0.00 0.00 73 1014.3
20181018214744 63 45 5.0 12.0 0.00 0.00 0.00 73 1014.4
20181018214240 63 44 5.0 12.0 0.00 0.00 0.00 74 1014.6
20181018213743 63 62 4.0 11.0 0.00 0.00 0.00 73 1014.6
20181018213225 63 348 4.0 11.0 0.00 0.00 0.00 74 1014.6
20181018212709 62 359 3.0 8.0 0.00 0.00 0.00 74 1014.7
20181018212206 62 349 3.0 10.0 0.00 0.00 0.00 75 1014.6
20181018211714 62 351 3.0 10.0 0.00 0.00 0.00 76 1014.8
20181018211222 62 316 2.0 13.0 0.00 0.00 0.00 77 1014.7
20181018210710 61 9 3.0 13.0 0.00 0.00 0.00 78 1014.6
20181018210212 60 349 4.0 13.0 0.00 0.00 0.00 78 1014.6
20181018205705 60 45 4.0 13.0 0.00 0.00 0.00 80 1014.7
20181018205147 59 342 3.0 8.0 0.00 0.00 0.00 81 1014.7
20181018204648 59 356 2.0 9.0 0.00 0.00 0.00 81 1014.6
20181018204158 59 46 3.0 9.0 0.00 0.00 0.00 82 1014.6
20181018203644 58 1 3.0 9.0 0.00 0.00 0.00 83 1014.6
20181018203145 58 342 4.0 9.0 0.00 0.00 0.00 84 1014.5
20181018202648 57 17 3.0 8.0 0.00 0.00 0.00 85 1014.5
20181018202133 56 39 3.0 11.0 0.00 0.00 0.00 86 1014.5
20181018201613 56 22 3.0 11.0 0.00 0.00 0.00 87 1014.6
20181018201113 56 38 4.0 11.0 0.00 0.00 0.00 87 1014.7
20181018200621 55 43 4.0 11.0 0.00 0.00 0.00 88 1014.8
20181018200129 55 38 3.0 7.0 0.00 0.00 0.00 88 1014.8
20181018195634 55 35 2.0 6.0 0.00 0.00 0.00 88 1014.7
20181018195143 55 59 1.0 6.0 0.00 0.00 0.00 88 1014.6
20181018194636 54 41 1.0 4.0 0.00 0.00 0.00 88 1014.5
20181018194129 54 59 1.0 4.0 0.00 0.00 0.00 88 1014.5
20181018193633 55 55 1.0 4.0 0.00 0.00 0.00 88 1014.5
20181018193124 55 56 0.0 4.0 0.00 0.00 0.00 88 1014.5
20181018192618 55 25 0.0 2.0 0.00 0.00 0.00 88 1014.5
20181018192104 55 48 0.0 2.0 0.00 0.00 0.00 88 1014.4
20181018191606 55 29 0.0 2.0 0.00 0.00 0.00 88 1014.3
20181018191102 55 29 0.0 2.0 0.00 0.00 0.00 87 1014.3
20181018190552 55 11 0.0 1.0 0.00 0.00 0.00 87 1014.3
20181018190038 55 31 0.0 1.0 0.00 0.00 0.00 87 1014.3
20181018185544 55 31 0.0 4.0 0.00 0.00 0.00 87 1014.2
20181018185049 55 31 1.0 4.0 0.00 0.00 0.00 87 1014.1
20181018184558 56 26 1.0 4.0 0.00 0.00 0.00 87 1014.0
20181018184040 56 60 1.0 4.0 0.00 0.00 0.00 86 1013.8
20181018183533 56 54 1.0 4.0 0.00 0.00 0.00 86 1013.8
20181018183016 56 46 2.0 6.0 0.00 0.01 0.00 86 1013.8